sensor_id;sensor_type;location;lat;lon;timestamp;pressure;altitude;pressure_sealevel;temperature;humidity
45275;BME280;31019;43.780;25.948;2023-04-08T00:00:22;101557.72;;;5.28;100.00
45275;BME280;31019;43.780;25.948;2023-04-08T00:02:49;101555.09;;;5.28;100.00
45275;BME280;31019;43.780;25.948;2023-04-08T00:05:16;101549.47;;;5.23;100.00
45275;BME280;31019;43.780;25.948;2023-04-08T00:07:43;101551.22;;;4.87;100.00
45275;BME280;31019;43.780;25.948;2023-04-08T00:10:10;101556.44;;;5.15;100.00
45275;BME280;31019;43.780;25.948;2023-04-08T00:12:37;101553.81;;;5.15;100.00
45275;BME280;31019;43.780;25.948;2023-04-08T00:15:05;101553.56;;;5.26;100.00
45275;BME280;31019;43.780;25.948;2023-04-08T00:17:33;101546.22;;;5.30;100.00
45275;BME280;31019;43.780;25.948;2023-04-08T00:20:00;101553.75;;;5.24;100.00
45275;BME280;31019;43.780;25.948;2023-04-08T00:22:30;101551.25;;;5.23;100.00
45275;BME280;31019;43.780;25.948;2023-04-08T00:25:00;101549.47;;;5.23;100.00
45275;BME280;31019;43.780;25.948;2023-04-08T00:27:27;101548.00;;;5.29;100.00
45275;BME280;31019;43.780;25.948;2023-04-08T00:29:54;101554.56;;;5.25;100.00
45275;BME280;31019;43.780;25.948;2023-04-08T00:32:21;101539.56;;;5.25;100.00
45275;BME280;31019;43.780;25.948;2023-04-08T00:34:50;101546.75;;;5.33;100.00
45275;BME280;31019;43.780;25.948;2023-04-08T00:37:16;101556.66;;;5.03;100.00
45275;BME280;31019;43.780;25.948;2023-04-08T00:39:43;101548.84;;;5.30;100.00
45275;BME280;31019;43.780;25.948;2023-04-08T00:42:11;101543.19;;;4.89;100.00
45275;BME280;31019;43.780;25.948;2023-04-08T00:44:38;101543.03;;;5.26;100.00
45275;BME280;31019;43.780;25.948;2023-04-08T00:47:05;101549.06;;;5.18;100.00
45275;BME280;31019;43.780;25.948;2023-04-08T00:49:31;101546.84;;;4.96;100.00
45275;BME280;31019;43.780;25.948;2023-04-08T00:52:00;101550.63;;;5.11;100.00
45275;BME280;31019;43.780;25.948;2023-04-08T00:54:27;101552.38;;;5.20;100.00
45275;BME280;31019;43.780;25.948;2023-04-08T00:56:53;101548.56;;;5.33;100.00
45275;BME280;31019;43.780;25.948;2023-04-08T00:59:21;101549.91;;;5.37;100.00
45275;BME280;31019;43.780;25.948;2023-04-08T01:01:52;101552.22;;;5.40;100.00
45275;BME280;31019;43.780;25.948;2023-04-08T01:04:31;101537.75;;;5.44;100.00
45275;BME280;31019;43.780;25.948;2023-04-08T01:07:09;101539.88;;;5.22;100.00
45275;BME280;31019;43.780;25.948;2023-04-08T01:09:41;101532.88;;;5.31;100.00
45275;BME280;31019;43.780;25.948;2023-04-08T01:12:11;101540.03;;;5.39;100.00
45275;BME280;31019;43.780;25.948;2023-04-08T01:14:42;101542.00;;;5.37;100.00
45275;BME280;31019;43.780;25.948;2023-04-08T01:17:10;101529.25;;;5.14;100.00
45275;BME280;31019;43.780;25.948;2023-04-08T01:19:39;101540.56;;;5.24;100.00
45275;BME280;31019;43.780;25.948;2023-04-08T01:22:21;101538.75;;;5.25;100.00
45275;BME280;31019;43.780;25.948;2023-04-08T01:24:50;101541.91;;;5.28;100.00
45275;BME280;31019;43.780;25.948;2023-04-08T01:27:25;101537.72;;;5.36;100.00
45275;BME280;31019;43.780;25.948;2023-04-08T01:29:55;101538.53;;;5.36;100.00
45275;BME280;31019;43.780;25.948;2023-04-08T01:32:24;101544.84;;;5.25;100.00
45275;BME280;31019;43.780;25.948;2023-04-08T01:34:52;101546.28;;;5.38;100.00
45275;BME280;31019;43.780;25.948;2023-04-08T01:37:20;101544.41;;;5.30;100.00
45275;BME280;31019;43.780;25.948;2023-04-08T01:39:48;101547.03;;;5.30;100.00
45275;BME280;31019;43.780;25.948;2023-04-08T01:42:16;101539.19;;;5.20;100.00
45275;BME280;31019;43.780;25.948;2023-04-08T01:44:45;101540.88;;;5.21;100.00
45275;BME280;31019;43.780;25.948;2023-04-08T01:47:12;101547.78;;;5.04;100.00
45275;BME280;31019;43.780;25.948;2023-04-08T01:49:40;101543.19;;;5.07;100.00
45275;BME280;31019;43.780;25.948;2023-04-08T01:52:08;101535.22;;;5.16;100.00
45275;BME280;31019;43.780;25.948;2023-04-08T01:54:35;101535.09;;;5.18;100.00
45275;BME280;31019;43.780;25.948;2023-04-08T01:57:04;101537.47;;;5.11;100.00
45275;BME280;31019;43.780;25.948;2023-04-08T01:59:34;101538.22;;;5.03;100.00
45275;BME280;31019;43.780;25.948;2023-04-08T02:02:05;101533.78;;;5.22;100.00
45275;BME280;31019;43.780;25.948;2023-04-08T02:04:34;101536.34;;;5.32;100.00
45275;BME280;31019;43.780;25.948;2023-04-08T02:07:02;101539.50;;;5.35;100.00
45275;BME280;31019;43.780;25.948;2023-04-08T02:09:30;101534.69;;;5.31;100.00
45275;BME280;31019;43.780;25.948;2023-04-08T02:11:57;101531.03;;;5.23;100.00
45275;BME280;31019;43.780;25.948;2023-04-08T02:14:24;101528.81;;;5.19;100.00
45275;BME280;31019;43.780;25.948;2023-04-08T02:16:53;101531.16;;;5.22;100.00
45275;BME280;31019;43.780;25.948;2023-04-08T02:19:24;101527.78;;;5.30;100.00
45275;BME280;31019;43.780;25.948;2023-04-08T02:21:56;101525.66;;;5.33;100.00
45275;BME280;31019;43.780;25.948;2023-04-08T02:24:26;101530.78;;;5.35;100.00
45275;BME280;31019;43.780;25.948;2023-04-08T02:26:55;101537.34;;;5.31;100.00
45275;BME280;31019;43.780;25.948;2023-04-08T02:29:23;101521.66;;;5.29;100.00
45275;BME280;31019;43.780;25.948;2023-04-08T02:31:51;101517.97;;;5.40;100.00
45275;BME280;31019;43.780;25.948;2023-04-08T02:34:19;101517.91;;;5.32;100.00
45275;BME280;31019;43.780;25.948;2023-04-08T02:36:49;101522.88;;;5.35;100.00
45275;BME280;31019;43.780;25.948;2023-04-08T02:39:16;101519.41;;;5.16;100.00
45275;BME280;31019;43.780;25.948;2023-04-08T02:41:43;101516.38;;;5.29;100.00
45275;BME280;31019;43.780;25.948;2023-04-08T02:44:10;101515.78;;;5.17;100.00
45275;BME280;31019;43.780;25.948;2023-04-08T02:46:37;101508.75;;;5.18;100.00
45275;BME280;31019;43.780;25.948;2023-04-08T02:49:04;101512.91;;;4.75;100.00
45275;BME280;31019;43.780;25.948;2023-04-08T02:51:31;101513.53;;;4.87;100.00
45275;BME280;31019;43.780;25.948;2023-04-08T02:54:02;101521.66;;;4.75;100.00
45275;BME280;31019;43.780;25.948;2023-04-08T02:56:29;101518.19;;;4.93;100.00
45275;BME280;31019;43.780;25.948;2023-04-08T02:58:56;101525.44;;;4.91;100.00
45275;BME280;31019;43.780;25.948;2023-04-08T03:01:23;101519.41;;;4.98;100.00
45275;BME280;31019;43.780;25.948;2023-04-08T03:03:50;101522.94;;;5.07;100.00
45275;BME280;31019;43.780;25.948;2023-04-08T03:06:17;101532.44;;;5.00;100.00
45275;BME280;31019;43.780;25.948;2023-04-08T03:08:44;101528.50;;;4.86;100.00
45275;BME280;31019;43.780;25.948;2023-04-08T03:11:12;101529.47;;;4.85;100.00
45275;BME280;31019;43.780;25.948;2023-04-08T03:13:39;101534.00;;;4.93;100.00
45275;BME280;31019;43.780;25.948;2023-04-08T03:16:06;101522.91;;;4.71;100.00
45275;BME280;31019;43.780;25.948;2023-04-08T03:18:33;101532.19;;;4.75;100.00
45275;BME280;31019;43.780;25.948;2023-04-08T03:21:00;101533.47;;;4.89;100.00
45275;BME280;31019;43.780;25.948;2023-04-08T03:23:27;101532.19;;;4.75;100.00
45275;BME280;31019;43.780;25.948;2023-04-08T03:25:54;101539.50;;;4.81;100.00
45275;BME280;31019;43.780;25.948;2023-04-08T03:28:23;101537.81;;;4.80;100.00
45275;BME280;31019;43.780;25.948;2023-04-08T03:30:50;101532.03;;;4.77;100.00
45275;BME280;31019;43.780;25.948;2023-04-08T03:33:17;101536.50;;;4.94;100.00
45275;BME280;31019;43.780;25.948;2023-04-08T03:35:43;101544.38;;;4.94;100.00
45275;BME280;31019;43.780;25.948;2023-04-08T03:38:10;101546.19;;;4.94;100.00
45275;BME280;31019;43.780;25.948;2023-04-08T03:40:37;101543.41;;;4.95;100.00
45275;BME280;31019;43.780;25.948;2023-04-08T03:43:04;101545.06;;;4.51;100.00
45275;BME280;31019;43.780;25.948;2023-04-08T03:45:34;101548.81;;;4.76;100.00
45275;BME280;31019;43.780;25.948;2023-04-08T03:48:01;101543.06;;;4.80;100.00
45275;BME280;31019;43.780;25.948;2023-04-08T03:50:28;101546.84;;;4.96;100.00
45275;BME280;31019;43.780;25.948;2023-04-08T03:52:55;101544.53;;;4.93;100.00
45275;BME280;31019;43.780;25.948;2023-04-08T03:55:22;101552.88;;;4.88;100.00
45275;BME280;31019;43.780;25.948;2023-04-08T03:57:49;101546.34;;;4.92;100.00
45275;BME280;31019;43.780;25.948;2023-04-08T04:00:16;101554.63;;;4.97;100.00
45275;BME280;31019;43.780;25.948;2023-04-08T04:02:44;101557.38;;;4.96;100.00
45275;BME280;31019;43.780;25.948;2023-04-08T04:05:11;101556.63;;;4.86;100.00
45275;BME280;31019;43.780;25.948;2023-04-08T04:07:38;101556.25;;;4.98;100.00
45275;BME280;31019;43.780;25.948;2023-04-08T04:10:05;101552.06;;;4.88;100.00
45275;BME280;31019;43.780;25.948;2023-04-08T04:12:32;101562.13;;;4.92;100.00
45275;BME280;31019;43.780;25.948;2023-04-08T04:14:59;101559.56;;;4.82;100.00
45275;BME280;31019;43.780;25.948;2023-04-08T04:17:26;101564.94;;;4.91;100.00
45275;BME280;31019;43.780;25.948;2023-04-08T04:19:56;101559.41;;;4.84;100.00
45275;BME280;31019;43.780;25.948;2023-04-08T04:22:23;101564.84;;;5.00;100.00
45275;BME280;31019;43.780;25.948;2023-04-08T04:24:50;101570.06;;;5.10;100.00
45275;BME280;31019;43.780;25.948;2023-04-08T04:27:17;101569.38;;;5.26;100.00
45275;BME280;31019;43.780;25.948;2023-04-08T04:29:44;101563.66;;;5.31;100.00
45275;BME280;31019;43.780;25.948;2023-04-08T04:32:11;101569.63;;;5.33;100.00
45275;BME280;31019;43.780;25.948;2023-04-08T04:34:37;101565.47;;;5.30;100.00
45275;BME280;31019;43.780;25.948;2023-04-08T04:37:06;101569.25;;;5.45;100.00
45275;BME280;31019;43.780;25.948;2023-04-08T04:39:33;101573.09;;;5.51;100.00
45275;BME280;31019;43.780;25.948;2023-04-08T04:42:00;101573.75;;;5.53;100.00
45275;BME280;31019;43.780;25.948;2023-04-08T04:44:27;101570.66;;;5.58;100.00
45275;BME280;31019;43.780;25.948;2023-04-08T04:46:54;101575.63;;;5.43;100.00
45275;BME280;31019;43.780;25.948;2023-04-08T04:49:21;101572.81;;;5.62;100.00
45275;BME280;31019;43.780;25.948;2023-04-08T04:51:48;101579.91;;;5.62;100.00
45275;BME280;31019;43.780;25.948;2023-04-08T04:54:16;101586.91;;;5.71;100.00
45275;BME280;31019;43.780;25.948;2023-04-08T04:56:43;101584.94;;;5.73;100.00
45275;BME280;31019;43.780;25.948;2023-04-08T04:59:10;101585.84;;;5.82;100.00
45275;BME280;31019;43.780;25.948;2023-04-08T05:01:37;101591.44;;;5.79;100.00
45275;BME280;31019;43.780;25.948;2023-04-08T05:04:05;101592.75;;;5.83;100.00
45275;BME280;31019;43.780;25.948;2023-04-08T05:06:32;101581.53;;;5.99;100.00
45275;BME280;31019;43.780;25.948;2023-04-08T05:08:59;101588.69;;;5.88;100.00
45275;BME280;31019;43.780;25.948;2023-04-08T05:11:27;101595.25;;;6.02;100.00
45275;BME280;31019;43.780;25.948;2023-04-08T05:13:54;101590.00;;;6.10;100.00
45275;BME280;31019;43.780;25.948;2023-04-08T05:16:21;101581.59;;;6.07;100.00
45275;BME280;31019;43.780;25.948;2023-04-08T05:18:48;101591.56;;;6.21;100.00
45275;BME280;31019;43.780;25.948;2023-04-08T05:21:15;101577.34;;;6.14;100.00
45275;BME280;31019;43.780;25.948;2023-04-08T05:23:42;101580.41;;;6.27;100.00
45275;BME280;31019;43.780;25.948;2023-04-08T05:26:09;101583.91;;;6.36;100.00
45275;BME280;31019;43.780;25.948;2023-04-08T05:28:37;101586.25;;;6.39;100.00
45275;BME280;31019;43.780;25.948;2023-04-08T05:31:04;101583.44;;;6.40;100.00
45275;BME280;31019;43.780;25.948;2023-04-08T05:33:31;101584.94;;;6.43;100.00
45275;BME280;31019;43.780;25.948;2023-04-08T05:35:57;101580.00;;;6.48;100.00
45275;BME280;31019;43.780;25.948;2023-04-08T05:38:24;101583.13;;;6.78;100.00
45275;BME280;31019;43.780;25.948;2023-04-08T05:40:51;101587.22;;;6.72;100.00
45275;BME280;31019;43.780;25.948;2023-04-08T05:43:18;101581.50;;;6.93;100.00
45275;BME280;31019;43.780;25.948;2023-04-08T05:45:46;101576.94;;;7.11;100.00
45275;BME280;31019;43.780;25.948;2023-04-08T05:48:13;101582.72;;;7.31;100.00
45275;BME280;31019;43.780;25.948;2023-04-08T05:50:40;101581.09;;;7.39;100.00
45275;BME280;31019;43.780;25.948;2023-04-08T05:53:08;101576.81;;;7.78;100.00
45275;BME280;31019;43.780;25.948;2023-04-08T05:55:35;101579.94;;;7.82;100.00
45275;BME280;31019;43.780;25.948;2023-04-08T05:58:02;101582.72;;;7.80;100.00
45275;BME280;31019;43.780;25.948;2023-04-08T06:00:29;101590.19;;;7.93;100.00
45275;BME280;31019;43.780;25.948;2023-04-08T06:03:00;101587.69;;;8.08;100.00
45275;BME280;31019;43.780;25.948;2023-04-08T06:05:26;101595.09;;;8.04;100.00
45275;BME280;31019;43.780;25.948;2023-04-08T06:07:53;101595.44;;;8.01;100.00
45275;BME280;31019;43.780;25.948;2023-04-08T06:10:20;101590.53;;;7.82;100.00
45275;BME280;31019;43.780;25.948;2023-04-08T06:12:47;101594.25;;;8.45;100.00
45275;BME280;31019;43.780;25.948;2023-04-08T06:15:14;101600.44;;;7.96;100.00
45275;BME280;31019;43.780;25.948;2023-04-08T06:17:42;101598.84;;;8.35;100.00
45275;BME280;31019;43.780;25.948;2023-04-08T06:20:10;101593.13;;;8.07;100.00
45275;BME280;31019;43.780;25.948;2023-04-08T06:22:37;101591.94;;;8.25;100.00
45275;BME280;31019;43.780;25.948;2023-04-08T06:25:05;101585.78;;;8.49;100.00
45275;BME280;31019;43.780;25.948;2023-04-08T06:27:32;101586.28;;;8.37;100.00
45275;BME280;31019;43.780;25.948;2023-04-08T06:29:59;101592.06;;;8.48;100.00
45275;BME280;31019;43.780;25.948;2023-04-08T06:32:26;101597.81;;;8.60;100.00
45275;BME280;31019;43.780;25.948;2023-04-08T06:34:53;101591.16;;;8.73;100.00
45275;BME280;31019;43.780;25.948;2023-04-08T06:37:22;101596.75;;;8.38;100.00
45275;BME280;31019;43.780;25.948;2023-04-08T06:39:49;101596.09;;;8.76;100.00
45275;BME280;31019;43.780;25.948;2023-04-08T06:42:16;101580.47;;;9.20;100.00
45275;BME280;31019;43.780;25.948;2023-04-08T06:44:43;101582.78;;;8.92;100.00
45275;BME280;31019;43.780;25.948;2023-04-08T06:47:10;101588.13;;;8.84;100.00
45275;BME280;31019;43.780;25.948;2023-04-08T06:49:36;101582.56;;;9.02;100.00
45275;BME280;31019;43.780;25.948;2023-04-08T06:52:03;101579.13;;;9.47;100.00
45275;BME280;31019;43.780;25.948;2023-04-08T06:54:32;101585.22;;;9.25;100.00
45275;BME280;31019;43.780;25.948;2023-04-08T06:56:59;101583.59;;;9.24;100.00
45275;BME280;31019;43.780;25.948;2023-04-08T06:59:26;101584.28;;;9.63;100.00
45275;BME280;31019;43.780;25.948;2023-04-08T07:01:54;101579.75;;;9.72;100.00
45275;BME280;31019;43.780;25.948;2023-04-08T07:04:21;101577.94;;;9.27;100.00
45275;BME280;31019;43.780;25.948;2023-04-08T07:06:48;101580.03;;;9.31;100.00
45275;BME280;31019;43.780;25.948;2023-04-08T07:09:15;101584.28;;;9.17;100.00
45275;BME280;31019;43.780;25.948;2023-04-08T07:11:44;101582.41;;;9.26;100.00
45275;BME280;31019;43.780;25.948;2023-04-08T07:14:11;101584.06;;;9.27;100.00
45275;BME280;31019;43.780;25.948;2023-04-08T07:16:38;101580.63;;;9.18;100.00
45275;BME280;31019;43.780;25.948;2023-04-08T07:19:05;101583.25;;;9.88;100.00
45275;BME280;31019;43.780;25.948;2023-04-08T07:21:32;101579.31;;;9.98;100.00
45275;BME280;31019;43.780;25.948;2023-04-08T07:23:59;101585.34;;;10.30;100.00
45275;BME280;31019;43.780;25.948;2023-04-08T07:26:26;101585.91;;;9.88;100.00
45275;BME280;31019;43.780;25.948;2023-04-08T07:28:55;101600.81;;;10.26;100.00
45275;BME280;31019;43.780;25.948;2023-04-08T07:31:22;101596.63;;;9.71;100.00
45275;BME280;31019;43.780;25.948;2023-04-08T07:33:48;101601.50;;;10.05;100.00
45275;BME280;31019;43.780;25.948;2023-04-08T07:36:15;101595.19;;;10.21;100.00
45275;BME280;31019;43.780;25.948;2023-04-08T07:38:43;101602.25;;;10.14;100.00
45275;BME280;31019;43.780;25.948;2023-04-08T07:41:09;101589.31;;;9.96;100.00
45275;BME280;31019;43.780;25.948;2023-04-08T07:43:36;101600.97;;;9.72;100.00
45275;BME280;31019;43.780;25.948;2023-04-08T07:46:06;101600.72;;;9.59;100.00
45275;BME280;31019;43.780;25.948;2023-04-08T07:48:33;101597.91;;;9.98;100.00
45275;BME280;31019;43.780;25.948;2023-04-08T07:51:02;101596.09;;;9.99;100.00
45275;BME280;31019;43.780;25.948;2023-04-08T07:53:30;101600.84;;;10.56;100.00
45275;BME280;31019;43.780;25.948;2023-04-08T07:55:58;101596.91;;;10.88;100.00
45275;BME280;31019;43.780;25.948;2023-04-08T07:58:24;101607.56;;;10.44;100.00
45275;BME280;31019;43.780;25.948;2023-04-08T08:00:51;101602.47;;;10.27;100.00
45275;BME280;31019;43.780;25.948;2023-04-08T08:03:20;101604.09;;;10.58;100.00
45275;BME280;31019;43.780;25.948;2023-04-08T08:05:47;101596.69;;;10.68;100.00
45275;BME280;31019;43.780;25.948;2023-04-08T08:08:14;101600.25;;;10.46;100.00
45275;BME280;31019;43.780;25.948;2023-04-08T08:10:41;101602.28;;;11.10;100.00
45275;BME280;31019;43.780;25.948;2023-04-08T08:13:08;101595.38;;;11.15;100.00
45275;BME280;31019;43.780;25.948;2023-04-08T08:15:36;101599.47;;;12.04;100.00
45275;BME280;31019;43.780;25.948;2023-04-08T08:18:03;101602.53;;;12.01;100.00
45275;BME280;31019;43.780;25.948;2023-04-08T08:20:32;101601.53;;;12.02;100.00
45275;BME280;31019;43.780;25.948;2023-04-08T08:22:59;101598.44;;;11.98;100.00
45275;BME280;31019;43.780;25.948;2023-04-08T08:25:26;101601.28;;;11.75;100.00
45275;BME280;31019;43.780;25.948;2023-04-08T08:27:52;101592.22;;;12.19;100.00
45275;BME280;31019;43.780;25.948;2023-04-08T08:30:19;101594.25;;;12.52;100.00
45275;BME280;31019;43.780;25.948;2023-04-08T08:32:46;101585.72;;;12.70;100.00
45275;BME280;31019;43.780;25.948;2023-04-08T08:35:14;101602.56;;;13.32;100.00
45275;BME280;31019;43.780;25.948;2023-04-08T08:37:42;101602.50;;;12.64;100.00
45275;BME280;31019;43.780;25.948;2023-04-08T08:40:10;101601.59;;;12.91;100.00
45275;BME280;31019;43.780;25.948;2023-04-08T08:42:38;101592.31;;;13.35;100.00
45275;BME280;31019;43.780;25.948;2023-04-08T08:45:06;101590.06;;;13.45;100.00
45275;BME280;31019;43.780;25.948;2023-04-08T08:47:33;101601.97;;;12.40;100.00
45275;BME280;31019;43.780;25.948;2023-04-08T08:50:01;101608.22;;;12.60;100.00
45275;BME280;31019;43.780;25.948;2023-04-08T08:52:28;101594.66;;;12.55;100.00
45275;BME280;31019;43.780;25.948;2023-04-08T08:55:00;101596.31;;;12.22;100.00
45275;BME280;31019;43.780;25.948;2023-04-08T08:57:27;101606.63;;;12.66;100.00
45275;BME280;31019;43.780;25.948;2023-04-08T08:59:54;101601.41;;;12.99;100.00
45275;BME280;31019;43.780;25.948;2023-04-08T09:02:25;101602.50;;;12.64;100.00
45275;BME280;31019;43.780;25.948;2023-04-08T09:04:57;101597.34;;;12.55;100.00
45275;BME280;31019;43.780;25.948;2023-04-08T09:07:25;101611.56;;;12.69;100.00
45275;BME280;31019;43.780;25.948;2023-04-08T09:09:54;101595.69;;;12.54;100.00
45275;BME280;31019;43.780;25.948;2023-04-08T09:12:23;101601.59;;;12.91;100.00
45275;BME280;31019;43.780;25.948;2023-04-08T09:15:02;101595.22;;;13.54;100.00
45275;BME280;31019;43.780;25.948;2023-04-08T09:17:32;101596.84;;;13.35;100.00
45275;BME280;31019;43.780;25.948;2023-04-08T09:20:07;101610.59;;;13.38;100.00
45275;BME280;31019;43.780;25.948;2023-04-08T09:22:54;101594.13;;;14.28;100.00
45275;BME280;31019;43.780;25.948;2023-04-08T09:25:25;101591.50;;;13.55;100.00
45275;BME280;31019;43.780;25.948;2023-04-08T09:27:54;101597.44;;;14.10;100.00
45275;BME280;31019;43.780;25.948;2023-04-08T09:30:23;101596.47;;;13.71;100.00
45275;BME280;31019;43.780;25.948;2023-04-08T09:32:51;101597.47;;;13.77;100.00
45275;BME280;31019;43.780;25.948;2023-04-08T09:35:19;101594.78;;;13.96;100.00
45275;BME280;31019;43.780;25.948;2023-04-08T09:37:47;101587.75;;;14.29;100.00
45275;BME280;31019;43.780;25.948;2023-04-08T09:40:16;101592.50;;;14.07;100.00
45275;BME280;31019;43.780;25.948;2023-04-08T09:42:47;101598.28;;;14.10;100.00
45275;BME280;31019;43.780;25.948;2023-04-08T09:45:19;101591.59;;;14.46;100.00
45275;BME280;31019;43.780;25.948;2023-04-08T09:47:55;101592.38;;;14.73;100.00
45275;BME280;31019;43.780;25.948;2023-04-08T09:50:25;101584.69;;;14.90;100.00
45275;BME280;31019;43.780;25.948;2023-04-08T09:52:59;101592.16;;;15.20;100.00
45275;BME280;31019;43.780;25.948;2023-04-08T09:55:29;101587.69;;;15.39;100.00
45275;BME280;31019;43.780;25.948;2023-04-08T09:58:00;101595.59;;;16.27;100.00
45275;BME280;31019;43.780;25.948;2023-04-08T10:00:35;101594.66;;;14.70;100.00
45275;BME280;31019;43.780;25.948;2023-04-08T10:03:09;101599.72;;;14.19;100.00
45275;BME280;31019;43.780;25.948;2023-04-08T10:05:40;101599.31;;;14.03;100.00
45275;BME280;31019;43.780;25.948;2023-04-08T10:08:07;101607.09;;;13.51;100.00
45275;BME280;31019;43.780;25.948;2023-04-08T10:10:34;101599.72;;;13.73;100.00
45275;BME280;31019;43.780;25.948;2023-04-08T10:13:04;101598.84;;;14.19;100.00
45275;BME280;31019;43.780;25.948;2023-04-08T10:15:34;101592.75;;;13.92;100.00
45275;BME280;31019;43.780;25.948;2023-04-08T10:18:32;101588.56;;;15.01;100.00
45275;BME280;31019;43.780;25.948;2023-04-08T10:20:59;101583.00;;;15.34;98.65
45275;BME280;31019;43.780;25.948;2023-04-08T10:23:55;101590.84;;;14.91;98.51
45275;BME280;31019;43.780;25.948;2023-04-08T10:26:31;101589.97;;;15.03;100.00
45275;BME280;31019;43.780;25.948;2023-04-08T10:29:30;101588.50;;;14.62;100.00
45275;BME280;31019;43.780;25.948;2023-04-08T10:31:59;101567.94;;;15.65;100.00
45275;BME280;31019;43.780;25.948;2023-04-08T10:34:27;101569.25;;;15.55;100.00
45275;BME280;31019;43.780;25.948;2023-04-08T10:36:56;101573.13;;;15.34;100.00
45275;BME280;31019;43.780;25.948;2023-04-08T10:39:29;101573.25;;;15.96;96.03
45275;BME280;31019;43.780;25.948;2023-04-08T10:41:56;101566.09;;;15.65;88.41
45275;BME280;31019;43.780;25.948;2023-04-08T10:44:26;101569.19;;;15.37;97.63
45275;BME280;31019;43.780;25.948;2023-04-08T10:46:54;101568.63;;;16.03;94.81
45275;BME280;31019;43.780;25.948;2023-04-08T10:49:31;101557.44;;;15.88;99.98
45275;BME280;31019;43.780;25.948;2023-04-08T10:51:58;101557.72;;;16.42;99.17
45275;BME280;31019;43.780;25.948;2023-04-08T10:54:25;101556.59;;;15.69;97.87
45275;BME280;31019;43.780;25.948;2023-04-08T10:56:52;101559.28;;;15.06;98.60
45275;BME280;31019;43.780;25.948;2023-04-08T10:59:27;101559.50;;;15.36;100.00
45275;BME280;31019;43.780;25.948;2023-04-08T11:01:54;101554.44;;;14.89;93.64
45275;BME280;31019;43.780;25.948;2023-04-08T11:04:24;101554.63;;;14.36;100.00
45275;BME280;31019;43.780;25.948;2023-04-08T11:06:51;101550.41;;;15.12;100.00
45275;BME280;31019;43.780;25.948;2023-04-08T11:09:18;101549.78;;;15.42;100.00
45275;BME280;31019;43.780;25.948;2023-04-08T11:11:46;101551.63;;;16.35;100.00
45275;BME280;31019;43.780;25.948;2023-04-08T11:14:13;101559.78;;;16.03;100.00
45275;BME280;31019;43.780;25.948;2023-04-08T11:16:41;101539.56;;;15.00;100.00
45275;BME280;31019;43.780;25.948;2023-04-08T11:19:09;101542.47;;;14.47;100.00
45275;BME280;31019;43.780;25.948;2023-04-08T11:21:37;101540.13;;;15.09;100.00
45275;BME280;31019;43.780;25.948;2023-04-08T11:24:11;101545.19;;;14.85;100.00
45275;BME280;31019;43.780;25.948;2023-04-08T11:26:39;101543.22;;;14.03;100.00
45275;BME280;31019;43.780;25.948;2023-04-08T11:29:08;101548.34;;;14.76;100.00
45275;BME280;31019;43.780;25.948;2023-04-08T11:31:37;101537.00;;;14.29;100.00
45275;BME280;31019;43.780;25.948;2023-04-08T11:34:04;101537.28;;;14.65;100.00
45275;BME280;31019;43.780;25.948;2023-04-08T11:36:31;101538.75;;;14.48;100.00
45275;BME280;31019;43.780;25.948;2023-04-08T11:39:05;101538.91;;;14.66;100.00
45275;BME280;31019;43.780;25.948;2023-04-08T11:41:36;101528.44;;;15.03;100.00
45275;BME280;31019;43.780;25.948;2023-04-08T11:44:04;101533.94;;;15.65;100.00
45275;BME280;31019;43.780;25.948;2023-04-08T11:46:31;101527.56;;;15.09;100.00
45275;BME280;31019;43.780;25.948;2023-04-08T11:49:00;101525.53;;;15.37;100.00
45275;BME280;31019;43.780;25.948;2023-04-08T11:51:28;101516.16;;;15.52;100.00
45275;BME280;31019;43.780;25.948;2023-04-08T11:53:55;101518.31;;;15.87;98.25
45275;BME280;31019;43.780;25.948;2023-04-08T11:56:24;101498.59;;;15.82;97.63
45275;BME280;31019;43.780;25.948;2023-04-08T11:58:51;101505.66;;;14.49;100.00
45275;BME280;31019;43.780;25.948;2023-04-08T12:01:19;101507.50;;;14.55;100.00
45275;BME280;31019;43.780;25.948;2023-04-08T12:03:56;101508.91;;;14.00;100.00
45275;BME280;31019;43.780;25.948;2023-04-08T12:06:24;101500.81;;;14.26;100.00
45275;BME280;31019;43.780;25.948;2023-04-08T12:08:51;101497.38;;;14.06;100.00
45275;BME280;31019;43.780;25.948;2023-04-08T12:11:18;101500.09;;;13.99;100.00
45275;BME280;31019;43.780;25.948;2023-04-08T12:13:47;101499.66;;;14.60;100.00
45275;BME280;31019;43.780;25.948;2023-04-08T12:16:15;101493.38;;;14.41;100.00
45275;BME280;31019;43.780;25.948;2023-04-08T12:18:42;101508.22;;;14.24;100.00
45275;BME280;31019;43.780;25.948;2023-04-08T12:21:09;101498.03;;;14.01;100.00
45275;BME280;31019;43.780;25.948;2023-04-08T12:23:36;101497.47;;;13.66;100.00
45275;BME280;31019;43.780;25.948;2023-04-08T12:26:05;101503.34;;;14.08;100.00
45275;BME280;31019;43.780;25.948;2023-04-08T12:28:32;101499.66;;;14.09;100.00
45275;BME280;31019;43.780;25.948;2023-04-08T12:31:01;101501.22;;;14.81;100.00
45275;BME280;31019;43.780;25.948;2023-04-08T12:33:29;101497.53;;;14.76;100.00
45275;BME280;31019;43.780;25.948;2023-04-08T12:35:56;101506.59;;;14.75;100.00
45275;BME280;31019;43.780;25.948;2023-04-08T12:38:24;101508.88;;;14.71;100.00
45275;BME280;31019;43.780;25.948;2023-04-08T12:40:51;101498.66;;;14.55;100.00